createdAt,value
2023-03-19T00:01:46.536Z,99.90
2023-03-19T00:04:13.529Z,99.90
2023-03-19T00:06:40.562Z,99.90
2023-03-19T00:09:11.397Z,99.90
2023-03-19T00:11:38.270Z,99.90
2023-03-19T00:14:05.312Z,99.90
2023-03-19T00:16:35.714Z,99.90
2023-03-19T00:19:02.497Z,99.90
2023-03-19T00:21:30.746Z,99.90
2023-03-19T00:24:02.583Z,99.90
2023-03-19T00:26:29.286Z,99.90
2023-03-19T00:29:02.766Z,99.90
2023-03-19T00:31:32.217Z,99.90
2023-03-19T00:33:59.205Z,99.90
2023-03-19T00:36:28.869Z,99.90
2023-03-19T00:38:55.782Z,99.90
2023-03-19T00:41:23.177Z,99.90
2023-03-19T00:43:50.310Z,99.90
2023-03-19T00:46:17.200Z,99.90
2023-03-19T00:48:44.011Z,99.90
2023-03-19T00:51:27.370Z,99.90
2023-03-19T00:53:57.143Z,99.90
2023-03-19T00:56:23.847Z,99.90
2023-03-19T00:58:50.794Z,99.90
2023-03-19T01:01:17.756Z,99.90
2023-03-19T01:03:45.331Z,99.90
2023-03-19T01:06:12.248Z,99.90
2023-03-19T01:08:39.505Z,99.90
2023-03-19T01:11:06.674Z,99.90
2023-03-19T01:13:35.355Z,99.90
2023-03-19T01:16:02.122Z,99.90
2023-03-19T01:18:29.061Z,99.90
2023-03-19T01:20:56.237Z,99.90
2023-03-19T01:23:24.016Z,99.90
2023-03-19T01:25:50.967Z,99.90
2023-03-19T01:28:17.648Z,99.90
2023-03-19T01:30:44.539Z,99.90
2023-03-19T01:33:29.043Z,99.90
2023-03-19T01:36:10.876Z,99.90
2023-03-19T01:38:37.878Z,99.90
2023-03-19T01:41:04.632Z,99.90
2023-03-19T01:43:31.757Z,99.90
2023-03-19T01:45:58.750Z,99.90
2023-03-19T01:48:25.785Z,99.90
2023-03-19T01:50:56.303Z,99.90
2023-03-19T01:53:23.045Z,99.90
2023-03-19T01:55:50.422Z,99.90
2023-03-19T01:58:26.074Z,99.90
2023-03-19T02:00:52.888Z,99.90
2023-03-19T02:03:23.843Z,99.90
2023-03-19T02:05:50.789Z,99.90
2023-03-19T02:08:23.354Z,99.90
2023-03-19T02:13:31.129Z,99.90
2023-03-19T02:15:58.433Z,99.90
2023-03-19T02:18:25.665Z,99.90
2023-03-19T02:20:53.223Z,99.90
2023-03-19T02:23:19.938Z,99.90
2023-03-19T02:25:46.700Z,99.90
2023-03-19T02:28:13.444Z,99.90
2023-03-19T02:30:40.100Z,99.90
2023-03-19T02:33:07.050Z,99.90
2023-03-19T02:35:33.910Z,99.90
2023-03-19T02:38:01.073Z,99.90
2023-03-19T02:40:27.850Z,99.90
2023-03-19T02:42:54.768Z,99.90
2023-03-19T02:45:21.737Z,99.90
2023-03-19T02:47:48.546Z,99.90
2023-03-19T02:50:18.814Z,99.90
2023-03-19T02:52:46.276Z,99.90
2023-03-19T02:55:13.309Z,99.90
2023-03-19T02:57:47.844Z,99.90
2023-03-19T03:00:19.211Z,99.90
2023-03-19T03:02:46.797Z,99.90
2023-03-19T03:05:15.166Z,99.90
2023-03-19T03:07:43.935Z,99.90
2023-03-19T03:10:11.036Z,99.90
2023-03-19T03:12:38.877Z,99.90
2023-03-19T03:15:07.778Z,99.90
2023-03-19T03:17:35.528Z,99.90
2023-03-19T03:20:05.605Z,99.90
2023-03-19T03:22:32.824Z,99.90
2023-03-19T03:25:01.415Z,99.90
2023-03-19T03:27:29.935Z,99.90
2023-03-19T03:29:57.611Z,99.90
2023-03-19T03:32:26.926Z,99.90
2023-03-19T03:34:54.587Z,99.90
2023-03-19T03:37:25.078Z,99.90
2023-03-19T03:39:53.572Z,99.90
2023-03-19T03:42:23.114Z,99.90
2023-03-19T03:44:50.052Z,99.90
2023-03-19T03:47:18.099Z,99.90
2023-03-19T03:49:45.112Z,99.90
2023-03-19T03:52:26.980Z,99.90
2023-03-19T03:54:53.851Z,99.90
2023-03-19T03:57:21.112Z,99.90
2023-03-19T03:59:50.278Z,99.90
2023-03-19T04:02:20.984Z,99.90
2023-03-19T04:04:51.360Z,99.90
2023-03-19T04:07:18.453Z,99.90
2023-03-19T04:09:46.279Z,99.90
2023-03-19T04:12:13.038Z,99.90
2023-03-19T04:14:39.952Z,99.90
2023-03-19T04:17:09.729Z,99.90
2023-03-19T04:19:36.690Z,99.90
2023-03-19T04:22:03.932Z,99.90
2023-03-19T04:24:31.598Z,99.90
2023-03-19T04:27:01.184Z,99.90
2023-03-19T04:29:28.925Z,99.90
2023-03-19T04:31:59.154Z,99.90
2023-03-19T04:34:26.810Z,99.90
2023-03-19T04:36:53.710Z,99.90
2023-03-19T04:39:20.462Z,99.90
2023-03-19T04:41:47.279Z,99.90
2023-03-19T04:44:14.292Z,99.90
2023-03-19T04:46:41.041Z,99.90
2023-03-19T04:49:08.189Z,99.90
2023-03-19T04:51:35.032Z,99.90
2023-03-19T04:54:04.772Z,99.90
2023-03-19T04:56:31.465Z,99.90
2023-03-19T04:58:58.208Z,99.90
2023-03-19T05:01:25.403Z,99.90
2023-03-19T05:03:52.371Z,99.90
2023-03-19T05:06:20.331Z,99.90
2023-03-19T05:08:47.279Z,99.90
2023-03-19T05:11:14.110Z,99.90
2023-03-19T05:13:41.122Z,99.90
2023-03-19T05:16:08.227Z,99.90
2023-03-19T05:18:41.123Z,99.90
2023-03-19T05:21:08.451Z,99.90
2023-03-19T05:23:35.739Z,99.90
2023-03-19T05:26:03.007Z,99.90
2023-03-19T05:28:30.119Z,99.90
2023-03-19T05:30:57.097Z,99.90
2023-03-19T05:33:25.067Z,99.90
2023-03-19T05:35:52.332Z,99.90
2023-03-19T05:38:19.252Z,99.90
2023-03-19T05:40:46.295Z,99.90
2023-03-19T05:43:13.257Z,99.90
2023-03-19T05:45:41.700Z,99.90
2023-03-19T05:48:14.614Z,99.90
2023-03-19T05:50:42.952Z,99.90
2023-03-19T05:53:09.784Z,99.90
2023-03-19T05:55:39.536Z,99.90
2023-03-19T05:58:07.930Z,99.90
2023-03-19T06:00:35.663Z,99.90
2023-03-19T06:03:06.019Z,99.90
2023-03-19T06:05:38.570Z,99.90
2023-03-19T06:08:05.764Z,99.90
2023-03-19T06:10:35.688Z,99.90
2023-03-19T06:13:02.724Z,99.90
2023-03-19T06:15:29.476Z,99.90
2023-03-19T06:18:01.736Z,99.90
2023-03-19T06:20:28.629Z,99.90
2023-03-19T06:22:55.457Z,99.90
2023-03-19T06:25:22.449Z,99.90
2023-03-19T06:27:49.793Z,99.90
2023-03-19T06:30:16.558Z,99.90
2023-03-19T06:32:43.990Z,99.90
2023-03-19T06:35:11.233Z,99.90
2023-03-19T06:37:38.044Z,99.90
2023-03-19T06:40:05.277Z,99.90
2023-03-19T06:42:32.079Z,99.90
2023-03-19T06:44:58.768Z,99.90
2023-03-19T06:47:26.221Z,99.90
2023-03-19T06:49:53.178Z,99.90
2023-03-19T06:52:20.018Z,99.90
2023-03-19T06:54:46.727Z,99.90
2023-03-19T06:57:13.708Z,99.90
2023-03-19T06:59:40.508Z,99.90
2023-03-19T07:02:09.640Z,99.90
2023-03-19T07:04:36.943Z,99.90
2023-03-19T07:07:06.038Z,99.90
2023-03-19T07:09:33.132Z,99.90
2023-03-19T07:12:00.555Z,99.90
2023-03-19T07:14:27.360Z,99.90
2023-03-19T07:16:54.091Z,99.90
2023-03-19T07:19:21.026Z,99.90
2023-03-19T07:21:50.233Z,99.90
2023-03-19T07:24:17.021Z,99.90
2023-03-19T07:26:44.386Z,99.90
2023-03-19T07:29:11.347Z,99.90
2023-03-19T07:31:38.103Z,99.90
2023-03-19T07:34:04.932Z,99.90
2023-03-19T07:36:31.895Z,99.90
2023-03-19T07:38:58.751Z,99.90
2023-03-19T07:41:26.110Z,99.90
2023-03-19T07:43:53.280Z,99.90
2023-03-19T07:46:20.130Z,99.90
2023-03-19T07:48:46.894Z,99.90
2023-03-19T07:51:13.716Z,99.90
2023-03-19T07:53:41.179Z,99.90
2023-03-19T07:56:11.004Z,99.90
2023-03-19T07:58:38.231Z,99.90
2023-03-19T08:01:05.048Z,99.90
2023-03-19T08:03:31.772Z,99.90
2023-03-19T08:05:58.702Z,99.90
2023-03-19T08:08:25.476Z,99.90
2023-03-19T08:10:52.790Z,99.90
2023-03-19T08:13:20.186Z,99.90
2023-03-19T08:15:47.323Z,99.90
2023-03-19T08:18:14.144Z,99.90
2023-03-19T08:20:41.291Z,99.90
2023-03-19T08:23:08.543Z,99.90
2023-03-19T08:25:35.704Z,99.90
2023-03-19T08:28:03.177Z,99.90
2023-03-19T08:30:35.883Z,99.90
2023-03-19T08:33:03.589Z,99.90
2023-03-19T08:35:31.362Z,99.90
2023-03-19T08:37:58.216Z,99.90
2023-03-19T08:40:25.060Z,99.90
2023-03-19T08:42:54.152Z,99.90
2023-03-19T08:45:26.881Z,99.90
2023-03-19T08:47:53.867Z,99.90
2023-03-19T08:50:20.602Z,99.90
2023-03-19T08:52:47.349Z,99.90
2023-03-19T08:55:14.585Z,99.90
2023-03-19T08:57:41.399Z,99.90
2023-03-19T09:00:08.110Z,99.90
2023-03-19T09:02:34.816Z,99.90
2023-03-19T09:05:01.794Z,99.90
2023-03-19T09:07:40.818Z,99.90
2023-03-19T09:10:07.459Z,99.40
2023-03-19T09:12:34.858Z,99.90
2023-03-19T09:15:01.687Z,99.90
2023-03-19T09:17:28.883Z,99.90
2023-03-19T09:19:55.624Z,98.80
2023-03-19T09:22:22.444Z,99.40
2023-03-19T09:24:49.133Z,99.90
2023-03-19T09:27:15.817Z,99.30
2023-03-19T09:29:42.801Z,98.10
2023-03-19T09:32:09.612Z,98.60
2023-03-19T09:34:37.145Z,99.90
2023-03-19T09:37:04.659Z,98.80
2023-03-19T09:39:32.526Z,96.60
2023-03-19T09:42:01.216Z,97.20
2023-03-19T09:44:28.214Z,96.70
2023-03-19T09:46:56.332Z,98.80
2023-03-19T09:49:23.526Z,98.60
2023-03-19T09:51:51.031Z,96.90
2023-03-19T09:54:18.098Z,95.70
2023-03-19T09:56:48.094Z,95.40
2023-03-19T09:59:15.331Z,95.10
2023-03-19T10:01:42.566Z,95.90
2023-03-19T10:04:09.321Z,94.40
2023-03-19T10:06:39.299Z,95.40
2023-03-19T10:09:06.897Z,94.90
2023-03-19T10:11:33.861Z,95.50
2023-03-19T10:14:00.893Z,95.30
2023-03-19T10:16:28.182Z,95.40
2023-03-19T10:18:55.220Z,96.10
2023-03-19T10:21:22.422Z,96.20
2023-03-19T10:23:49.892Z,93.30
2023-03-19T10:26:17.050Z,94.50
2023-03-19T10:28:44.387Z,93.30
2023-03-19T10:31:11.139Z,94.40
2023-03-19T10:33:38.518Z,94.10
2023-03-19T10:36:05.911Z,95.60
2023-03-19T10:38:33.744Z,93.40
2023-03-19T10:41:00.513Z,93.40
2023-03-19T10:43:27.494Z,94.00
2023-03-19T10:45:54.872Z,94.50
2023-03-19T10:48:22.521Z,92.60
2023-03-19T10:50:49.878Z,92.50
2023-03-19T10:53:16.961Z,93.00
2023-03-19T10:55:43.661Z,90.80
2023-03-19T10:58:10.517Z,91.60
2023-03-19T11:00:37.966Z,91.00
2023-03-19T11:03:05.878Z,91.20
2023-03-19T11:05:33.947Z,91.60
2023-03-19T11:08:01.334Z,92.20
2023-03-19T11:10:28.303Z,90.40
2023-03-19T11:12:55.404Z,87.10
2023-03-19T11:15:23.022Z,84.70
2023-03-19T11:17:50.161Z,90.00
2023-03-19T11:20:16.944Z,88.60
2023-03-19T11:22:43.883Z,89.30
2023-03-19T11:25:13.562Z,92.70
2023-03-19T11:27:40.480Z,90.80
2023-03-19T11:30:07.528Z,87.50
2023-03-19T11:32:37.397Z,90.00
2023-03-19T11:35:04.510Z,91.20
2023-03-19T11:37:31.987Z,90.90
2023-03-19T11:39:59.028Z,87.90
2023-03-19T11:42:26.462Z,90.80
2023-03-19T11:44:53.240Z,90.70
2023-03-19T11:47:27.156Z,89.90
2023-03-19T11:49:54.990Z,87.10
2023-03-19T11:52:22.166Z,87.90
2023-03-19T11:54:49.204Z,90.30
2023-03-19T11:57:18.091Z,90.10
2023-03-19T11:59:45.195Z,88.90
2023-03-19T12:02:12.053Z,89.40
2023-03-19T12:04:38.764Z,89.30
2023-03-19T12:07:05.648Z,90.50
2023-03-19T12:09:34.595Z,89.50
2023-03-19T12:12:01.876Z,87.30
2023-03-19T12:14:31.626Z,90.50
2023-03-19T12:16:58.764Z,89.00
2023-03-19T12:19:25.593Z,84.00
2023-03-19T12:21:52.381Z,90.40
2023-03-19T12:24:19.065Z,84.30
2023-03-19T12:26:45.806Z,81.90
2023-03-19T12:29:12.802Z,84.80
2023-03-19T12:31:39.602Z,86.20
2023-03-19T12:34:06.908Z,88.20
2023-03-19T12:36:33.959Z,90.90
2023-03-19T12:39:01.442Z,86.30
2023-03-19T12:41:32.869Z,88.30
2023-03-19T12:43:59.990Z,89.10
2023-03-19T12:46:28.082Z,86.70
2023-03-19T12:48:55.029Z,90.40
2023-03-19T12:51:23.156Z,85.00
2023-03-19T12:53:50.356Z,87.50
2023-03-19T12:56:17.886Z,86.70
2023-03-19T12:58:45.041Z,89.50
2023-03-19T13:01:13.929Z,85.40
2023-03-19T13:03:40.789Z,87.20
2023-03-19T13:06:08.766Z,89.00
2023-03-19T13:08:35.890Z,84.80
2023-03-19T13:11:02.832Z,86.90
2023-03-19T13:13:29.817Z,87.80
2023-03-19T13:15:57.036Z,87.60
2023-03-19T13:18:23.852Z,88.50
2023-03-19T13:20:50.841Z,85.70
2023-03-19T13:23:18.106Z,84.20
2023-03-19T13:25:46.144Z,81.90
2023-03-19T13:28:12.870Z,84.20
2023-03-19T13:30:40.529Z,86.70
2023-03-19T13:33:07.374Z,82.20
2023-03-19T13:35:34.231Z,85.00
2023-03-19T13:38:01.059Z,79.40
2023-03-19T13:40:27.981Z,86.60
2023-03-19T13:42:54.793Z,83.60
2023-03-19T13:45:21.431Z,81.30
2023-03-19T13:47:48.702Z,82.00
2023-03-19T13:50:16.390Z,80.10
2023-03-19T13:52:43.789Z,78.80
2023-03-19T13:55:11.235Z,76.50
2023-03-19T13:57:38.385Z,77.00
2023-03-19T14:00:07.904Z,78.00
2023-03-19T14:02:37.565Z,79.60
2023-03-19T14:05:04.808Z,79.20
2023-03-19T14:07:31.644Z,80.20
2023-03-19T14:09:58.762Z,80.00
2023-03-19T14:12:28.606Z,80.10
2023-03-19T14:14:56.026Z,80.10
2023-03-19T14:17:23.316Z,80.40
2023-03-19T14:19:50.231Z,80.00
2023-03-19T14:22:17.008Z,80.50
2023-03-19T14:24:59.992Z,82.30
2023-03-19T14:27:26.722Z,79.90
2023-03-19T14:29:53.984Z,81.30
2023-03-19T14:32:23.817Z,82.70
2023-03-19T14:34:50.767Z,81.80
2023-03-19T14:37:17.574Z,80.80
2023-03-19T14:39:44.419Z,82.70
2023-03-19T14:42:11.149Z,83.40
2023-03-19T14:44:37.968Z,81.70
2023-03-19T14:47:04.836Z,81.80
2023-03-19T14:49:32.021Z,80.90
2023-03-19T14:52:00.606Z,83.40
2023-03-19T14:54:27.614Z,78.80
2023-03-19T14:56:54.980Z,75.80
2023-03-19T14:59:25.151Z,76.90
2023-03-19T15:01:51.867Z,74.50
2023-03-19T15:04:18.633Z,75.80
2023-03-19T15:06:45.548Z,77.30
2023-03-19T15:09:12.316Z,79.10
2023-03-19T15:11:39.156Z,80.20
2023-03-19T15:14:05.994Z,80.50
2023-03-19T15:16:32.784Z,85.70
2023-03-19T15:19:00.017Z,82.70
2023-03-19T15:21:26.757Z,82.10
2023-03-19T15:23:53.966Z,78.30
2023-03-19T15:26:22.657Z,80.20
2023-03-19T15:28:49.733Z,84.50
2023-03-19T15:31:31.663Z,79.20
2023-03-19T15:34:03.892Z,79.60
2023-03-19T15:36:30.718Z,80.10
2023-03-19T15:38:57.711Z,79.80
2023-03-19T15:41:24.426Z,81.60
2023-03-19T15:43:51.239Z,79.40
2023-03-19T15:46:18.347Z,81.80
2023-03-19T15:48:45.279Z,82.50
2023-03-19T15:51:11.987Z,81.20
2023-03-19T15:53:38.718Z,82.20
2023-03-19T15:56:05.452Z,79.70
2023-03-19T15:58:32.245Z,80.80
2023-03-19T16:00:59.403Z,81.20
2023-03-19T16:03:26.286Z,84.20
2023-03-19T16:05:56.303Z,79.50
2023-03-19T16:08:23.026Z,77.00
2023-03-19T16:10:49.801Z,78.00
2023-03-19T16:13:16.587Z,74.40
2023-03-19T16:15:43.428Z,74.80
2023-03-19T16:18:10.319Z,75.70
2023-03-19T16:20:36.953Z,77.30
2023-03-19T16:23:03.704Z,76.50
2023-03-19T16:25:31.477Z,76.60
2023-03-19T16:28:01.379Z,78.40
2023-03-19T16:30:28.180Z,75.80
2023-03-19T16:32:54.958Z,78.80
2023-03-19T16:35:22.350Z,78.10
2023-03-19T16:37:49.268Z,78.80
2023-03-19T16:40:16.169Z,78.10
2023-03-19T16:42:42.910Z,78.70
2023-03-19T16:45:12.541Z,80.50
2023-03-19T16:47:39.612Z,79.60
2023-03-19T16:50:06.310Z,77.30
2023-03-19T16:52:33.009Z,78.00
2023-03-19T16:54:59.978Z,78.20
2023-03-19T16:57:27.163Z,78.20
2023-03-19T16:59:53.887Z,78.80
2023-03-19T17:02:20.670Z,78.50
2023-03-19T17:04:47.680Z,75.70
2023-03-19T17:07:14.523Z,77.40
2023-03-19T17:09:41.240Z,73.60
2023-03-19T17:12:08.003Z,73.10
2023-03-19T17:14:34.700Z,75.90
2023-03-19T17:17:02.340Z,77.00
2023-03-19T17:19:29.548Z,76.70
2023-03-19T17:21:58.885Z,76.90
2023-03-19T17:24:26.476Z,78.20
2023-03-19T17:26:54.221Z,79.40
2023-03-19T17:29:23.065Z,80.00
2023-03-19T17:31:50.036Z,80.20
2023-03-19T17:34:17.256Z,82.90
2023-03-19T17:36:43.938Z,82.30
2023-03-19T17:39:11.183Z,82.80
2023-03-19T17:41:38.827Z,81.90
2023-03-19T17:44:06.690Z,81.80
2023-03-19T17:46:33.857Z,82.80
2023-03-19T17:49:00.597Z,83.50
2023-03-19T17:51:27.350Z,84.00
2023-03-19T17:53:54.626Z,83.00
2023-03-19T17:56:24.137Z,84.40
2023-03-19T17:58:53.341Z,85.30
2023-03-19T18:01:20.207Z,86.90
2023-03-19T18:03:46.955Z,85.80
2023-03-19T18:06:13.617Z,87.00
2023-03-19T18:08:40.713Z,88.50
2023-03-19T18:11:07.684Z,88.60
2023-03-19T18:13:35.138Z,88.60
2023-03-19T18:16:01.972Z,89.20
2023-03-19T18:18:28.804Z,90.10
2023-03-19T18:20:55.705Z,89.20
2023-03-19T18:23:24.629Z,89.50
2023-03-19T18:25:51.678Z,90.20
2023-03-19T18:28:18.600Z,90.40
2023-03-19T18:30:47.411Z,90.40
2023-03-19T18:33:18.172Z,91.10
2023-03-19T18:35:45.592Z,91.50
2023-03-19T18:38:12.491Z,90.90
2023-03-19T18:40:46.974Z,91.80
2023-03-19T18:43:19.996Z,91.60
2023-03-19T18:45:47.322Z,92.30
2023-03-19T18:48:14.673Z,92.40
2023-03-19T18:50:44.842Z,91.60
2023-03-19T18:53:12.264Z,91.90
2023-03-19T18:55:39.516Z,92.60
2023-03-19T18:58:09.293Z,93.40
2023-03-19T19:00:37.064Z,93.30
2023-03-19T19:03:04.286Z,93.50
2023-03-19T19:05:31.742Z,93.60
2023-03-19T19:08:01.254Z,93.90
2023-03-19T19:10:28.404Z,94.20
2023-03-19T19:13:04.001Z,95.10
2023-03-19T19:15:31.880Z,95.10
2023-03-19T19:18:01.230Z,95.20
2023-03-19T19:20:28.522Z,95.50
2023-03-19T19:22:58.872Z,95.70
2023-03-19T19:25:25.956Z,96.40
2023-03-19T19:27:55.544Z,95.90
2023-03-19T19:30:22.835Z,96.60
2023-03-19T19:32:50.373Z,96.30
2023-03-19T19:35:17.423Z,96.40
2023-03-19T19:37:44.569Z,96.60
2023-03-19T19:40:12.116Z,96.90
2023-03-19T19:42:42.045Z,96.60
2023-03-19T19:45:09.034Z,97.20
2023-03-19T19:47:35.992Z,97.20
2023-03-19T19:50:03.338Z,97.90
2023-03-19T19:52:31.864Z,97.60
2023-03-19T19:54:58.633Z,97.60
2023-03-19T19:57:25.576Z,97.80
2023-03-19T19:59:55.530Z,97.60
2023-03-19T20:02:22.513Z,97.80
2023-03-19T20:04:49.735Z,97.50
2023-03-19T20:07:16.933Z,97.40
2023-03-19T20:09:44.549Z,97.70
2023-03-19T20:12:11.652Z,97.20
2023-03-19T20:14:38.784Z,97.20
2023-03-19T20:17:06.184Z,97.10
2023-03-19T20:19:33.188Z,97.00
2023-03-19T20:22:00.318Z,97.30
2023-03-19T20:24:27.083Z,96.90
2023-03-19T20:26:54.289Z,97.30
2023-03-19T20:29:21.527Z,97.20
2023-03-19T20:31:48.783Z,97.50
2023-03-19T20:34:28.621Z,97.40
2023-03-19T20:37:03.029Z,97.70
2023-03-19T20:39:30.146Z,98.10
2023-03-19T20:41:57.327Z,98.10
2023-03-19T20:44:24.542Z,98.20
2023-03-19T20:46:51.937Z,98.50
2023-03-19T20:49:19.025Z,98.30
2023-03-19T20:51:46.211Z,98.20
2023-03-19T20:54:13.276Z,98.80
2023-03-19T20:56:40.138Z,98.40
2023-03-19T20:59:07.197Z,98.50
2023-03-19T21:01:33.972Z,98.90
2023-03-19T21:04:00.974Z,99.10
2023-03-19T21:06:27.799Z,99.10
2023-03-19T21:08:57.425Z,99.20
2023-03-19T21:11:24.573Z,99.30
2023-03-19T21:13:52.144Z,99.70
2023-03-19T21:16:20.112Z,99.80
2023-03-19T21:18:49.908Z,99.90
2023-03-19T21:21:16.862Z,99.90
2023-03-19T21:23:43.919Z,99.70
2023-03-19T21:26:11.126Z,99.90
2023-03-19T21:28:38.227Z,99.70
2023-03-19T21:31:05.810Z,99.90
2023-03-19T21:33:33.381Z,99.90
2023-03-19T21:36:02.966Z,99.90
2023-03-19T21:38:30.279Z,99.90
2023-03-19T21:40:58.687Z,99.90
2023-03-19T21:43:26.638Z,99.90
2023-03-19T21:45:54.381Z,99.90
2023-03-19T21:48:21.226Z,99.90
2023-03-19T21:50:50.062Z,99.90
2023-03-19T21:53:16.764Z,99.90
2023-03-19T21:55:43.571Z,99.90
2023-03-19T21:58:10.929Z,99.90
2023-03-19T22:00:38.347Z,99.90
2023-03-19T22:03:05.577Z,99.90
2023-03-19T22:05:32.717Z,99.90
2023-03-19T22:08:00.165Z,99.90
2023-03-19T22:10:27.120Z,99.90
2023-03-19T22:12:54.342Z,99.90
2023-03-19T22:15:21.431Z,99.90
2023-03-19T22:17:48.631Z,99.90
2023-03-19T22:20:15.740Z,99.90
2023-03-19T22:22:43.245Z,99.90
2023-03-19T22:25:10.411Z,99.90
2023-03-19T22:27:37.642Z,99.90
2023-03-19T22:30:04.784Z,99.90
2023-03-19T22:32:31.666Z,99.90
2023-03-19T22:34:58.968Z,99.90
2023-03-19T22:37:26.708Z,99.90
2023-03-19T22:39:53.765Z,99.90
2023-03-19T22:42:20.982Z,99.90
2023-03-19T22:44:47.628Z,99.90
2023-03-19T22:47:14.289Z,99.90
2023-03-19T22:49:41.505Z,99.90
2023-03-19T22:52:08.249Z,99.90
2023-03-19T22:54:35.551Z,99.90
2023-03-19T22:57:02.759Z,99.90
2023-03-19T22:59:30.134Z,99.90
2023-03-19T23:01:58.624Z,99.90
2023-03-19T23:04:25.679Z,99.90
2023-03-19T23:06:52.494Z,99.90
2023-03-19T23:09:19.151Z,99.90
2023-03-19T23:11:46.586Z,99.90
2023-03-19T23:14:27.899Z,99.90
2023-03-19T23:19:24.089Z,99.90
2023-03-19T23:21:51.367Z,99.90
2023-03-19T23:24:22.293Z,99.90
2023-03-19T23:26:49.403Z,99.90
2023-03-19T23:29:19.054Z,99.90
2023-03-19T23:31:46.334Z,99.90
2023-03-19T23:34:13.433Z,99.90
2023-03-19T23:36:40.820Z,99.90
2023-03-19T23:39:10.383Z,99.90
2023-03-19T23:41:37.868Z,99.90
2023-03-19T23:44:04.977Z,99.90
2023-03-19T23:46:32.071Z,99.90
2023-03-19T23:48:59.011Z,99.90
2023-03-19T23:51:26.673Z,99.90
2023-03-19T23:53:54.249Z,99.90
2023-03-19T23:56:21.395Z,99.90
2023-03-19T23:58:48.034Z,99.90
